Latest Weather Observations for Toowoomba

IDQ60801

Issued at 6:02 pm EST Tuesday 28 July 2015 (issued every 30 minutes, with the page automatically refreshed every 10 minutes)

About weather observations | Map of weather stations | Latest weather observations for QLD | Other Formats
Station Details ID: 041529 Name: TOOWOOMBA AIRPORT Lat: -27.54 Lon: 151.91 Height: 640.9 m
Data from the previous 72 hours. | See also: Recent months at Toowoomba
Date/Time
EST
Temp
°C
App
Temp
°C
Dew
Point
Rel
Hum
%
Delta-T
°C
Wind Press
QNH
hPa
Press
MSL
hPa
Rain
since 9 am
mm
Dir
 
Spd
km/h
Gust
km/h
Spd
kts
Gust
kts
28/06:00pm 11.1 7.7 4.1 62 3.2 SSW 11 13 6 7 1030.4 1030.1 0.0
28/05:30pm 11.8 8.5 4.3 60 3.5 SSW 11 15 6 8 1030.1 1029.8 0.0
28/05:00pm 13.2 9.1 4.6 56 4.1 SSW 15 19 8 10 1029.9 1029.6 0.0
28/04:30pm 13.6 9.9 4.5 54 4.3 SW 13 17 7 9 1029.8 1029.5 0.0
28/04:00pm 15.4 11.8 4.8 49 5.1 SW 13 19 7 10 1029.5 1029.2 0.0
28/03:30pm 14.1 11.5 4.4 52 4.6 SSW 7 13 4 7 1029.4 1029.1 0.0
28/03:00pm 14.2 10.6 5.0 54 4.4 WSW 13 17 7 9 1029.3 1029.0 0.0
28/02:30pm 14.5 10.9 4.8 52 4.7 SW 13 19 7 10 1029.3 1029.0 0.0
28/02:00pm 16.0 12.3 4.7 47 5.5 SW 13 20 7 11 1029.4 1029.1 0.0
28/01:30pm 15.4 11.9 5.6 52 4.8 SW 13 24 7 13 1029.7 1029.4 0.0
28/01:00pm 14.8 11.5 6.6 58 4.1 WSW 13 17 7 9 1030.0 1029.7 0.0
28/12:30pm 15.2 13.0 6.0 54 4.6 NNE 7 11 4 6 1030.5 1030.2 0.0
28/12:00pm 15.3 12.7 6.1 54 4.6 E 9 15 5 8 1030.8 1030.5 0.0
28/11:30am 14.2 10.7 5.6 56 4.2 E 13 19 7 10 1031.2 1030.9 0.0
28/11:00am 14.1 11.5 6.0 58 4.0 ESE 9 17 5 9 1031.6 1031.4 0.0
28/10:30am 13.6 10.3 6.2 61 3.7 ENE 13 20 7 11 1031.9 1031.6 0.0
28/10:00am 12.6 10.4 5.5 62 3.4 N 6 9 3 5 1031.9 1031.6 0.0
28/09:30am 10.3 8.2 3.8 64 3.0 SW 4 7 2 4 1031.9 1031.6 0.0
28/09:00am 8.6 5.7 2.8 67 2.5 WNW 7 9 4 5 1031.6 1031.4 0.0
28/08:30am 6.6 4.7 2.7 76 1.7 SW 2 6 1 3 1031.3 1031.0 0.0
28/08:00am 4.5 2.0 1.4 80 1.3 WNW 4 7 2 4 1031.0 1030.7 0.0
28/07:30am 3.9 2.2 1.6 85 0.9 CALM 0 0 0 0 1030.6 1030.3 0.0
28/07:00am 2.6 0.6 -0.2 82 1.1 CALM 0 0 0 0 1030.3 1030.0 0.0
28/06:30am 3.0 0.7 0.4 83 1.0 WSW 2 6 1 3 1029.9 1029.6 0.0
28/06:00am 2.6 0.2 0.0 83 1.0 SSW 2 6 1 3 1029.7 1029.4 0.0
28/05:30am 2.2 0.3 0.6 89 0.6 CALM 0 2 0 1 1029.4 1029.1 0.0
28/05:00am 2.5 0.6 0.4 86 0.8 CALM 0 0 0 0 1029.1 1028.8 0.0
28/04:30am 1.9 -0.4 0.3 89 0.6 NW 2 6 1 3 1028.9 1028.6 0.0
28/04:00am 2.3 -0.7 0.7 89 0.6 W 6 7 3 4 1029.0 1028.7 0.0
28/03:30am 2.6 0.0 0.7 87 0.7 SW 4 7 2 4 1028.9 1028.6 0.0
28/03:00am 2.9 -0.1 0.6 85 0.9 WSW 6 9 3 5 1028.6 1028.2 0.0
28/02:30am 3.6 -0.4 0.8 82 1.1 SW 11 15 6 8 1028.8 1028.4 0.0
28/02:00am 3.3 -0.3 0.7 83 1.0 SW 9 13 5 7 1028.8 1028.4 0.0
28/01:30am 3.7 0.2 1.1 83 1.0 SSW 9 17 5 9 1029.0 1028.7 0.0
28/01:00am 4.1 -0.9 1.5 83 1.1 SW 17 22 9 12 1029.1 1028.8 0.0
28/12:30am 4.4 -0.9 1.8 83 1.1 SW 19 24 10 13 1029.1 1028.8 0.0
28/12:00am 4.6 -0.4 1.5 80 1.3 SW 17 20 9 11 1029.2 1028.9 0.0
 
Date/Time
EST
Temp
°C
App
Temp
°C
Dew
Point
Rel
Hum
%
Delta-T
°C
Wind Press
QNH
hPa
Press
MSL
hPa
Rain
since 9 am
mm
Dir
 
Spd
km/h
Gust
km/h
Spd
kts
Gust
kts
27/11:30pm 5.4 0.5 1.7 77 1.5 SSW 17 22 9 12 1029.1 1028.8 0.0
27/11:00pm 5.8 -0.4 1.9 76 1.6 SW 24 33 13 18 1028.9 1028.6 0.0
27/10:30pm 6.1 0.8 1.8 74 1.8 SW 19 26 10 14 1029.6 1029.3 0.0
27/10:00pm 6.4 1.5 1.7 72 2.0 SW 17 24 9 13 1029.8 1029.5 0.0
27/09:30pm 6.6 1.3 1.7 71 2.1 WSW 19 26 10 14 1029.4 1029.1 0.0
27/09:00pm 6.9 1.4 2.0 71 2.1 WSW 20 28 11 15 1029.3 1029.0 0.0
27/08:30pm 7.1 1.7 2.2 71 2.1 WSW 20 28 11 15 1028.9 1028.6 0.0
27/08:00pm 7.6 2.8 2.5 70 2.2 WSW 17 22 9 12 1028.9 1028.6 0.0
27/07:30pm 7.8 3.4 2.7 70 2.2 WSW 15 20 8 11 1028.6 1028.2 0.0
27/07:00pm 8.4 3.2 2.4 66 2.6 WSW 19 24 10 13 1028.1 1027.8 0.0
27/06:30pm 8.7 4.0 2.9 67 2.6 WSW 17 22 9 12 1027.6 1027.3 0.0
27/06:00pm 9.4 4.1 2.9 64 2.9 WSW 20 28 11 15 1027.1 1026.7 0.0
27/05:30pm 10.2 5.1 3.9 65 2.9 WSW 20 28 11 15 1026.9 1026.5 0.0
27/05:00pm 11.6 6.1 3.9 59 3.5 WSW 22 28 12 15 1026.4 1026.1 0.0
27/04:30pm 12.7 7.0 4.7 58 3.8 W 24 30 13 16 1026.0 1025.6 0.0
27/04:00pm 13.2 7.4 4.4 55 4.2 WSW 24 32 13 17 1025.7 1025.3 0.0
27/03:30pm 14.2 8.0 4.5 52 4.6 WSW 26 33 14 18 1025.4 1025.0 0.0
27/03:00pm 13.9 7.2 3.9 51 4.7 WSW 28 39 15 21 1025.3 1024.9 0.0
27/02:30pm 14.5 7.7 5.3 54 4.5 WSW 30 39 16 21 1025.3 1024.9 0.0
27/02:00pm 14.5 8.1 5.3 54 4.5 WSW 28 39 15 21 1025.3 1024.9 0.0
27/01:30pm 14.3 8.8 5.9 57 4.1 WSW 24 33 13 18 1025.5 1025.1 0.0
27/01:00pm 13.9 7.5 5.3 56 4.2 WSW 28 37 15 20 1025.8 1025.4 0.0
27/12:30pm 14.6 8.2 5.4 54 4.5 WSW 28 39 15 21 1026.0 1025.6 0.0
27/12:00pm 14.7 8.6 6.5 58 4.1 WSW 28 41 15 22 1026.5 1026.2 0.0
27/11:30am 14.0 7.9 6.8 62 3.6 SW 28 39 15 21 1026.9 1026.5 0.0
27/11:00am 13.4 7.7 6.5 63 3.4 SW 26 32 14 17 1027.3 1026.9 0.0
27/10:30am 13.3 7.2 6.4 63 3.4 SW 28 37 15 20 1027.5 1027.2 0.0
27/10:00am 12.9 7.2 6.5 65 3.1 WSW 26 37 14 20 1027.6 1027.3 0.0
27/09:30am 12.1 7.1 6.6 69 2.7 WSW 22 30 12 16 1027.4 1027.0 0.0
27/09:00am 10.8 5.9 6.7 76 2.0 WSW 22 28 12 15 1027.2 1026.8 0.4
27/08:30am 9.9 5.0 6.8 81 1.5 WSW 22 28 12 15 1027.0 1026.6 0.4
27/08:00am 9.1 4.4 6.2 82 1.4 WSW 20 26 11 14 1026.7 1026.4 0.4
27/07:30am 8.2 4.0 5.8 85 1.1 WSW 17 22 9 12 1026.3 1026.0 0.4
27/07:00am 7.8 3.2 5.6 86 1.0 WSW 19 24 10 13 1026.0 1025.6 0.4
27/06:30am 7.9 3.3 5.7 86 1.0 WSW 19 22 10 12 1025.7 1025.3 0.4
27/06:00am 7.9 3.3 5.7 86 1.0 WSW 19 24 10 13 1025.4 1025.0 0.4
27/05:30am 7.9 3.8 6.0 88 0.9 WSW 17 20 9 11 1025.1 1024.8 0.4
27/05:00am 8.1 3.7 6.6 90 0.7 WSW 19 22 10 12 1024.8 1024.5 0.4
27/04:30am 8.0 4.0 6.8 92 0.6 WSW 17 19 9 10 1024.7 1024.3 0.4
27/04:00am 8.2 3.9 7.0 92 0.6 WSW 19 22 10 12 1024.6 1024.2 0.4
27/03:30am 8.4 4.5 6.9 90 0.7 WSW 17 20 9 11 1024.6 1024.2 0.4
27/03:00am 8.5 4.9 6.8 89 0.8 WSW 15 19 8 10 1024.6 1024.2 0.4
27/02:30am 9.1 5.2 7.1 87 1.0 WSW 17 20 9 11 1024.6 1024.2 0.4
27/02:00am 9.1 5.2 7.1 87 1.0 WSW 17 22 9 12 1024.5 1024.1 0.4
27/01:30am 9.3 5.8 7.3 87 1.0 WSW 15 19 8 10 1024.5 1024.1 0.4
27/01:00am 9.2 6.1 7.2 87 1.0 W 13 17 7 9 1024.7 1024.3 0.4
27/12:30am 9.7 6.6 7.1 84 1.3 WSW 13 19 7 10 1024.9 1024.6 0.4
27/12:00am 10.4 6.2 7.3 81 1.5 SW 19 22 10 12 1024.7 1024.3 0.4
 
Date/Time
EST
Temp
°C
App
Temp
°C
Dew
Point
Rel
Hum
%
Delta-T
°C
Wind Press
QNH
hPa
Press
MSL
hPa
Rain
since 9 am
mm
Dir
 
Spd
km/h
Gust
km/h
Spd
kts
Gust
kts
26/11:30pm 10.8 6.5 7.1 78 1.8 WSW 19 22 10 12 1024.8 1024.5 0.4
26/11:00pm 11.2 6.7 7.1 76 2.0 SW 20 28 11 15 1024.9 1024.6 0.4
26/10:30pm 11.5 7.1 7.6 77 2.0 SW 20 28 11 15 1024.9 1024.6 0.4
26/10:00pm 11.8 7.6 8.1 78 1.9 SW 20 28 11 15 1024.8 1024.5 0.4
26/09:30pm 12.1 8.1 9.1 82 1.6 SW 20 26 11 14 1024.6 1024.2 0.4
26/09:00pm 12.5 9.4 11.6 94 0.5 SW 19 24 10 13 1024.6 1024.2 0.4
26/08:30pm 13.3 10.2 12.2 93 0.6 WSW 20 28 11 15 1024.4 1024.0 0.4
26/08:00pm 14.6 11.3 12.8 89 1.0 WSW 22 30 12 16 1024.0 1023.6 0.4
26/07:30pm 14.5 12.1 12.7 89 1.0 W 17 22 9 12 1023.8 1023.4 0.4
26/07:00pm 14.7 12.5 13.2 91 0.9 W 17 20 9 11 1023.3 1022.9 0.4
26/06:30pm 14.9 13.1 13.4 91 0.9 W 15 20 8 11 1022.9 1022.5 0.4
26/06:00pm 15.1 13.9 14.0 93 0.6 WSW 13 17 7 9 1022.4 1022.0 0.4
26/05:30pm 15.3 13.8 14.2 93 0.6 WSW 15 19 8 10 1022.1 1021.6 0.4
26/05:00pm 16.3 14.4 14.3 88 1.2 W 17 24 9 13 1021.7 1021.3 0.4
26/04:33pm 17.2 15.2 15.0 87 1.3 W 19 26 10 14 1021.7 1021.3 0.4
26/04:30pm 17.1 15.2 15.1 88 1.2 W 19 26 10 14 1021.7 1021.3 0.4
26/04:12pm 16.8 15.3 15.3 91 0.9 W 17 22 9 12 1021.5 1021.1 0.4
26/04:04pm 16.9 14.9 15.4 91 0.9 W 20 26 11 14 1021.4 1021.0 0.4
26/04:00pm 16.9 14.9 15.4 91 0.9 W 20 28 11 15 1021.4 1021.0 0.4
26/03:41pm 16.9 16.2 16.3 96 0.4 W 15 20 8 11 1021.4 1021.0 0.4
26/03:30pm 16.2 15.0 16.0 99 0.1 W 17 22 9 12 1021.4 1021.0 0.4
26/03:24pm 16.0 14.7 15.8 99 0.1 W 17 22 9 12 1021.5 1021.1 0.4
26/03:02pm 16.0 14.1 15.8 99 0.1 WNW 20 28 11 15 1021.3 1020.9 0.4
26/03:00pm 16.0 14.1 15.8 99 0.1 WNW 20 28 11 15 1021.2 1020.8 0.4
26/02:30pm 15.6 13.8 15.4 99 0.1 WNW 19 26 10 14 1021.2 1020.8 0.4
26/02:00pm 15.3 12.8 15.1 99 0.1 W 22 28 12 15 1021.2 1020.8 0.4
26/01:30pm 15.1 12.9 14.9 99 0.1 WNW 20 30 11 16 1021.3 1020.9 0.4
26/01:00pm 14.9 11.9 14.7 99 0.1 WNW 24 33 13 18 1021.6 1021.2 0.4
26/12:30pm 14.9 12.8 14.7 99 0.1 WNW 19 24 10 13 1022.1 1021.6 0.4
26/12:00pm 14.7 12.3 14.5 99 0.1 WNW 20 28 11 15 1022.6 1022.2 0.4
26/11:30am 14.6 12.2 14.4 99 0.1 WNW 20 28 11 15 1023.0 1022.6 0.2
26/11:00am 14.4 11.6 14.2 99 0.1 WNW 22 32 12 17 1023.4 1023.0 0.2
26/10:30am 14.5 12.1 14.3 99 0.1 WNW 20 30 11 16 1023.9 1023.5 0.2
26/10:09am 14.6 12.4 14.3 98 0.2 WNW 19 28 10 15 1024.1 1023.7 0.2
26/10:00am 14.7 12.8 14.1 96 0.3 WNW 17 24 9 13 1024.2 1023.8 0.0
26/09:30am 15.0 13.0 14.0 94 0.6 NW 17 22 9 12 1024.3 1023.9 0.0
26/09:00am 15.1 14.0 14.3 95 0.5 NW 13 19 7 10 1024.0 1023.6 4.0
26/08:30am 14.8 15.0 14.6 99 0.1 WNW 7 11 4 6 1023.9 1023.5 4.0
26/08:00am 14.3 14.3 14.1 99 0.1 WNW 7 9 4 5 1023.7 1023.3 4.0
26/07:51am 14.1 13.6 13.9 99 0.1 WNW 9 11 5 6 1023.8 1023.4 4.0
26/07:30am 14.1 13.5 13.6 97 0.3 NW 9 13 5 7 1023.6 1023.2 3.6
26/07:20am 14.1 14.4 13.3 95 0.5 NNW 4 13 2 7 1023.8 1023.4 2.0
26/07:00am 13.8 14.0 13.0 95 0.5 ENE 4 7 2 4 1023.2 1022.8 1.0
26/06:42am 14.0 14.8 12.7 92 0.7 CALM 0 0 0 0 1023.4 1023.0 0.4
26/06:30am 14.1 14.9 12.7 91 0.8 CALM 0 6 0 3 1023.3 1022.9 0.0
26/06:00am 14.2 13.9 12.6 90 0.9 N 6 7 3 4 1023.1 1022.7 0.0
26/05:30am 13.7 14.5 12.4 92 0.7 CALM 0 0 0 0 1022.8 1022.4 0.0
26/05:00am 14.1 14.4 12.1 88 1.1 N 2 7 1 4 1023.0 1022.6 0.0
26/04:30am 14.9 13.3 11.7 81 1.8 N 11 19 6 10 1022.8 1022.4 0.0
26/04:00am 15.3 13.0 11.9 80 1.9 N 15 22 8 12 1022.5 1022.1 0.0
26/03:30am 15.3 13.4 11.9 80 1.9 N 13 17 7 9 1022.9 1022.5 0.0
26/03:00am 15.1 13.7 12.2 83 1.6 N 11 17 6 9 1023.0 1022.6 0.0
26/02:30am 14.7 13.7 12.4 86 1.3 N 9 11 5 6 1023.3 1022.9 0.0
26/02:00am 13.0 12.0 11.1 88 1.0 N 7 11 4 6 1023.7 1023.3 0.0
26/01:30am 13.5 11.9 11.6 88 1.0 NNE 11 13 6 7 1023.8 1023.4 0.0
26/01:00am 12.2 11.4 10.9 92 0.7 E 6 7 3 4 1023.9 1023.5 0.0
26/12:30am 12.6 11.4 11.5 93 0.6 ENE 9 15 5 8 1023.6 1023.2 0.0
26/12:00am 13.1 11.6 12.0 93 0.6 ENE 11 13 6 7 1024.0 1023.6 0.0
 
Date/Time
EST
Temp
°C
App
Temp
°C
Dew
Point
Rel
Hum
%
Delta-T
°C
Wind Press
QNH
hPa
Press
MSL
hPa
Rain
since 9 am
mm
Dir
 
Spd
km/h
Gust
km/h
Spd
kts
Gust
kts
25/11:30pm 12.6 12.9 11.0 90 0.9 CALM 0 0 0 0 1024.2 1023.8 0.0
25/11:00pm 13.2 12.6 11.8 91 0.8 SSE 6 7 3 4 1024.2 1023.8 0.0
25/10:30pm 12.0 11.2 10.9 93 0.6 ESE 6 7 3 4 1024.5 1024.1 0.0
25/10:00pm 12.1 11.2 10.8 92 0.7 E 6 7 3 4 1024.5 1024.1 0.0
25/09:30pm 12.1 11.2 10.7 91 0.8 E 6 7 3 4 1024.8 1024.5 0.0
25/09:00pm 13.1 12.3 11.2 88 1.0 ESE 6 7 3 4 1024.6 1024.2 0.0
25/08:30pm 13.4 12.7 11.3 87 1.1 SSE 6 7 3 4 1024.4 1024.0 0.0
25/08:00pm 13.1 12.2 11.2 88 1.0 SSE 7 7 4 4 1024.3 1023.9 0.0
25/07:30pm 13.8 13.8 11.3 85 1.4 WSW 2 6 1 3 1024.0 1023.6 0.0
25/07:00pm 14.3 13.6 11.3 82 1.6 W 6 7 3 4 1024.0 1023.6 0.0
25/06:30pm 14.7 13.4 11.1 79 2.0 W 9 13 5 7 1023.9 1023.5 0.0

Other Formats:

Comma delimited format used in spreadsheet applications
http://www.bom.gov.au/fwo/IDQ60801/IDQ60801.95551.axf

JavaScript Object Notation format (JSON) in row-major order
http://www.bom.gov.au/fwo/IDQ60801/IDQ60801.95551.json